Centerville, MA

12:57 AM EST on December 25, 2014 (GMT -0500)
Centerville | Change Station
CLOSE
Current Station
Personal Weather Station
Location: Massachusetts, MA
Elevation: 56 ft
Nearby Weather Stations

Elev 56 ft 41.67 °N, 70.37 °W | Updated 20 seconds ago

Overcast
Overcast
58.0 °F
Feels Like 58.0 °F
N
6.0
Wind Variable Wind from South
Gusts 10.0 mph

Today
High -- | Low -- °F
--% Chance of Precip.
Yesterday
High -- | Low -- °F
Precip. -- in
7:06 AM 4:16 PM
Waxing Crescent, 13% visible
Pressure 29.61 in
Visibility 0.8 miles
Clouds
Dew Point 57 °F
Humidity 98%
Rainfall 0.00 in
Snow Depth Not available.
UV Not available.
Pollen .10 out of 12
Air Quality Not available.
Flu Activity Not available.
SPECI KHYA 250534Z 20012G22KT 3/4SM BR VV002 13/13 A2961 RMK AO2 PK WND 19028/0505 RAE21 P0000 T01330133

More Conditions Fewer Conditions

Pressure 29.61 in
Visibility 0.8 miles
Clouds
Dew Point 57 °F
Humidity 98%
Rainfall 0.00 in
Snow Depth Not available.
UV Not available.
Pollen .10 out of 12
Air Quality Not available.
Flu Activity Not available.
SPECI KHYA 250534Z 20012G22KT 3/4SM BR VV002 13/13 A2961 RMK AO2 PK WND 19028/0505 RAE21 P0000 T01330133

More Conditions Fewer Conditions

10-Day Weather Forecast

Almanac

Astronomy

Dec. 25, 2014 Rise Set
Actual Time
Civil Twilight
Nautical Twilight
Astronomical Twilight
Moon
Length of Visible Light
Length of Day
Tomorrow will be .
, % of the Moon is Illuminated

Today's Extremes

State Highs State Lows

Community

WunderPhotos

Upload Photos

1,780,244 photos uploaded!

WunderBlogs® & News

Nearby

Air Quality

  Air Quality AQ Index Pollutant
Not available.

Snow Depth

Station Depth Elevation

Earthquake Activity

City Distance Mag. Time & Date
Minimum magnitude displayed is 2.5.

Coastal Water Temperatures

Place Temperature

Nearby Weather Stations